sensor_id;sensor_type;location;lat;lon;timestamp;pressure;altitude;pressure_sealevel;temperature;humidity
58973;BME280;44750;52.040;7.472;2023-03-14T00:04:46;97665.34;;;11.99;100.00
58973;BME280;44750;52.040;7.472;2023-03-14T00:09:47;97641.63;;;11.94;100.00
58973;BME280;44750;52.040;7.472;2023-03-14T00:14:47;97618.44;;;11.86;100.00
58973;BME280;44750;52.040;7.472;2023-03-14T00:19:47;97619.47;;;11.85;100.00
58973;BME280;44750;52.040;7.472;2023-03-14T00:24:48;97638.81;;;11.77;100.00
58973;BME280;44750;52.040;7.472;2023-03-14T00:29:48;97630.81;;;11.70;100.00
58973;BME280;44750;52.040;7.472;2023-03-14T00:34:48;97603.47;;;11.72;100.00
58973;BME280;44750;52.040;7.472;2023-03-14T00:39:51;97556.00;;;11.69;100.00
58973;BME280;44750;52.040;7.472;2023-03-14T00:44:51;97531.13;;;11.61;100.00
58973;BME280;44750;52.040;7.472;2023-03-14T00:49:51;97518.69;;;11.48;100.00
58973;BME280;44750;52.040;7.472;2023-03-14T00:54:52;97557.44;;;11.48;100.00
58973;BME280;44750;52.040;7.472;2023-03-14T00:59:52;97554.25;;;11.28;100.00
58973;BME280;44750;52.040;7.472;2023-03-14T01:04:52;97584.88;;;11.40;100.00
58973;BME280;44750;52.040;7.472;2023-03-14T01:09:52;97575.56;;;11.36;100.00
58973;BME280;44750;52.040;7.472;2023-03-14T01:14:53;97570.03;;;11.31;100.00
58973;BME280;44750;52.040;7.472;2023-03-14T01:19:53;97560.97;;;11.37;100.00
58973;BME280;44750;52.040;7.472;2023-03-14T01:24:53;97570.03;;;11.43;100.00
58973;BME280;44750;52.040;7.472;2023-03-14T01:29:53;97569.19;;;11.42;100.00
58973;BME280;44750;52.040;7.472;2023-03-14T01:34:53;97589.94;;;11.48;100.00
58973;BME280;44750;52.040;7.472;2023-03-14T01:39:54;97593.69;;;11.47;100.00
58973;BME280;44750;52.040;7.472;2023-03-14T01:44:59;97577.44;;;11.47;100.00
58973;BME280;44750;52.040;7.472;2023-03-14T01:50:05;97590.03;;;11.42;100.00
58973;BME280;44750;52.040;7.472;2023-03-14T01:55:09;97590.41;;;11.33;100.00
58973;BME280;44750;52.040;7.472;2023-03-14T02:00:15;97591.09;;;11.05;95.14
58973;BME280;44750;52.040;7.472;2023-03-14T02:05:19;97596.09;;;10.90;84.46
58973;BME280;44750;52.040;7.472;2023-03-14T02:10:27;97631.41;;;10.95;73.83
58973;BME280;44750;52.040;7.472;2023-03-14T02:15:28;97647.84;;;10.81;67.17
58973;BME280;44750;52.040;7.472;2023-03-14T02:25:47;97677.19;;;10.66;55.55
58973;BME280;44750;52.040;7.472;2023-03-14T02:30:51;97679.16;;;10.59;51.07
58973;BME280;44750;52.040;7.472;2023-03-14T02:35:59;97712.66;;;10.58;46.90
58973;BME280;44750;52.040;7.472;2023-03-14T02:41:02;97706.38;;;10.45;44.69
58973;BME280;44750;52.040;7.472;2023-03-14T02:46:03;97715.84;;;10.36;42.72
58973;BME280;44750;52.040;7.472;2023-03-14T02:51:05;97747.88;;;10.32;40.54
58973;BME280;44750;52.040;7.472;2023-03-14T02:56:07;97739.38;;;10.29;40.92
58973;BME280;44750;52.040;7.472;2023-03-14T03:01:07;97742.91;;;10.29;41.45
58973;BME280;44750;52.040;7.472;2023-03-14T03:06:07;97756.88;;;10.26;42.75
58973;BME280;44750;52.040;7.472;2023-03-14T03:11:08;97747.47;;;10.10;44.32
58973;BME280;44750;52.040;7.472;2023-03-14T03:16:08;97742.34;;;10.02;45.10
58973;BME280;44750;52.040;7.472;2023-03-14T03:21:08;97746.88;;;10.08;45.38
58973;BME280;44750;52.040;7.472;2023-03-14T03:26:09;97736.72;;;10.03;46.86
58973;BME280;44750;52.040;7.472;2023-03-14T03:31:10;97736.34;;;10.00;47.29
58973;BME280;44750;52.040;7.472;2023-03-14T03:36:11;97721.63;;;9.96;48.04
58973;BME280;44750;52.040;7.472;2023-03-14T03:41:11;97713.53;;;9.96;49.01
58973;BME280;44750;52.040;7.472;2023-03-14T03:46:11;97710.22;;;9.94;49.27
58973;BME280;44750;52.040;7.472;2023-03-14T03:51:13;97713.38;;;9.91;50.51
58973;BME280;44750;52.040;7.472;2023-03-14T03:56:13;97703.38;;;9.91;50.19
58973;BME280;44750;52.040;7.472;2023-03-14T04:01:14;97721.41;;;9.97;51.10
58973;BME280;44750;52.040;7.472;2023-03-14T04:06:14;97723.25;;;9.97;52.52
58973;BME280;44750;52.040;7.472;2023-03-14T04:11:14;97718.72;;;9.97;52.77
58973;BME280;44750;52.040;7.472;2023-03-14T04:16:18;97728.91;;;9.95;52.91
58973;BME280;44750;52.040;7.472;2023-03-14T04:21:19;97729.91;;;10.01;51.86
58973;BME280;44750;52.040;7.472;2023-03-14T04:26:19;97735.25;;;10.08;51.40
58973;BME280;44750;52.040;7.472;2023-03-14T04:31:21;97739.22;;;10.05;51.23
58973;BME280;44750;52.040;7.472;2023-03-14T04:36:22;97736.06;;;10.08;51.19
58973;BME280;44750;52.040;7.472;2023-03-14T04:41:22;97706.78;;;10.05;50.58
58973;BME280;44750;52.040;7.472;2023-03-14T04:46:23;97694.47;;;10.09;51.41
58973;BME280;44750;52.040;7.472;2023-03-14T04:51:23;97706.66;;;10.18;51.39
58973;BME280;44750;52.040;7.472;2023-03-14T04:56:23;97666.19;;;10.12;53.44
58973;BME280;44750;52.040;7.472;2023-03-14T05:01:24;97670.16;;;10.09;55.36
58973;BME280;44750;52.040;7.472;2023-03-14T05:06:24;97672.41;;;10.12;57.17
58973;BME280;44750;52.040;7.472;2023-03-14T05:11:24;97656.19;;;10.12;58.32
58973;BME280;44750;52.040;7.472;2023-03-14T05:16:24;97648.69;;;10.14;59.94
58973;BME280;44750;52.040;7.472;2023-03-14T05:21:25;97609.34;;;10.00;60.48
58973;BME280;44750;52.040;7.472;2023-03-14T05:26:25;97633.06;;;9.98;59.59
58973;BME280;44750;52.040;7.472;2023-03-14T05:31:25;97622.41;;;9.84;58.96
58973;BME280;44750;52.040;7.472;2023-03-14T05:36:25;97634.41;;;9.88;58.16
58973;BME280;44750;52.040;7.472;2023-03-14T05:41:26;97644.41;;;9.88;57.84
58973;BME280;44750;52.040;7.472;2023-03-14T05:46:26;97665.16;;;9.87;56.79
58973;BME280;44750;52.040;7.472;2023-03-14T05:51:26;97665.38;;;9.86;55.42
58973;BME280;44750;52.040;7.472;2023-03-14T05:56:27;97673.19;;;9.94;54.77
58973;BME280;44750;52.040;7.472;2023-03-14T06:01:30;97669.28;;;9.90;54.41
58973;BME280;44750;52.040;7.472;2023-03-14T06:06:30;97663.31;;;9.88;53.84
58973;BME280;44750;52.040;7.472;2023-03-14T06:11:31;97663.38;;;10.00;53.87
58973;BME280;44750;52.040;7.472;2023-03-14T06:16:31;97660.06;;;9.98;55.19
58973;BME280;44750;52.040;7.472;2023-03-14T06:21:31;97670.88;;;9.98;53.94
58973;BME280;44750;52.040;7.472;2023-03-14T06:26:31;97678.81;;;9.93;50.83
58973;BME280;44750;52.040;7.472;2023-03-14T06:31:32;97693.84;;;9.88;47.54
58973;BME280;44750;52.040;7.472;2023-03-14T06:36:32;97696.44;;;9.77;43.53
58973;BME280;44750;52.040;7.472;2023-03-14T06:41:33;97704.59;;;9.70;35.04
58973;BME280;44750;52.040;7.472;2023-03-14T06:46:33;97738.44;;;9.73;27.30
58973;BME280;44750;52.040;7.472;2023-03-14T06:51:33;97752.47;;;9.63;19.91
58973;BME280;44750;52.040;7.472;2023-03-14T06:56:34;97772.94;;;9.45;13.03
58973;BME280;44750;52.040;7.472;2023-03-14T07:01:34;97802.19;;;9.48;5.10
58973;BME280;44750;52.040;7.472;2023-03-14T07:06:34;97822.19;;;9.41;0.00
58973;BME280;44750;52.040;7.472;2023-03-14T07:11:34;97878.84;;;9.47;0.00
58973;BME280;44750;52.040;7.472;2023-03-14T07:16:35;97891.09;;;9.50;0.00
58973;BME280;44750;52.040;7.472;2023-03-14T07:21:35;97922.41;;;9.58;0.00
58973;BME280;44750;52.040;7.472;2023-03-14T07:26:35;97956.91;;;9.56;0.00
58973;BME280;44750;52.040;7.472;2023-03-14T07:31:35;97968.34;;;9.58;0.00
58973;BME280;44750;52.040;7.472;2023-03-14T07:36:36;97995.72;;;9.68;0.00
58973;BME280;44750;52.040;7.472;2023-03-14T07:41:36;98016.44;;;9.81;0.00
58973;BME280;44750;52.040;7.472;2023-03-14T07:46:36;98037.13;;;10.00;0.00
58973;BME280;44750;52.040;7.472;2023-03-14T07:51:36;98054.53;;;10.11;0.00
58973;BME280;44750;52.040;7.472;2023-03-14T07:56:37;98057.84;;;10.20;0.00
58973;BME280;44750;52.040;7.472;2023-03-14T08:01:37;98063.66;;;10.24;0.00
58973;BME280;44750;52.040;7.472;2023-03-14T08:06:37;98081.88;;;10.42;0.00
58973;BME280;44750;52.040;7.472;2023-03-14T08:11:37;98073.03;;;10.60;0.00
58973;BME280;44750;52.040;7.472;2023-03-14T08:16:37;98064.97;;;10.53;0.00
58973;BME280;44750;52.040;7.472;2023-03-14T08:21:38;98047.16;;;10.39;0.00
58973;BME280;44750;52.040;7.472;2023-03-14T08:26:38;98060.56;;;10.59;0.00
58973;BME280;44750;52.040;7.472;2023-03-14T08:31:38;98064.38;;;10.44;0.00
58973;BME280;44750;52.040;7.472;2023-03-14T08:36:39;98074.38;;;10.44;0.00
58973;BME280;44750;52.040;7.472;2023-03-14T08:41:39;98096.75;;;10.58;0.00
58973;BME280;44750;52.040;7.472;2023-03-14T08:46:39;98096.34;;;10.54;0.00
58973;BME280;44750;52.040;7.472;2023-03-14T08:51:39;98102.34;;;10.63;0.00
58973;BME280;44750;52.040;7.472;2023-03-14T08:56:40;98095.09;;;10.57;0.00
58973;BME280;44750;52.040;7.472;2023-03-14T09:01:40;98118.75;;;10.68;0.00
58973;BME280;44750;52.040;7.472;2023-03-14T09:06:41;98103.75;;;10.72;0.00
58973;BME280;44750;52.040;7.472;2023-03-14T09:11:41;98099.34;;;10.78;0.00
58973;BME280;44750;52.040;7.472;2023-03-14T09:16:43;98088.25;;;10.86;0.00
58973;BME280;44750;52.040;7.472;2023-03-14T09:21:44;98113.84;;;10.83;0.00
58973;BME280;44750;52.040;7.472;2023-03-14T09:26:44;98061.38;;;9.68;0.00
58973;BME280;44750;52.040;7.472;2023-03-14T09:31:44;98049.22;;;9.19;0.00
58973;BME280;44750;52.040;7.472;2023-03-14T09:36:44;98051.50;;;9.02;0.00
58973;BME280;44750;52.040;7.472;2023-03-14T09:41:50;98049.25;;;8.72;0.24
58973;BME280;44750;52.040;7.472;2023-03-14T09:46:53;98066.03;;;8.67;0.72
58973;BME280;44750;52.040;7.472;2023-03-14T09:51:57;98060.34;;;8.42;1.83
58973;BME280;44750;52.040;7.472;2023-03-14T09:56:58;98079.63;;;8.32;1.52
58973;BME280;44750;52.040;7.472;2023-03-14T10:02:01;98122.31;;;8.29;0.00
58973;BME280;44750;52.040;7.472;2023-03-14T10:07:02;98150.59;;;7.98;0.00
58973;BME280;44750;52.040;7.472;2023-03-14T10:12:02;98176.28;;;7.94;1.85
58973;BME280;44750;52.040;7.472;2023-03-14T10:17:12;98178.25;;;7.50;6.77
58973;BME280;44750;52.040;7.472;2023-03-14T10:22:14;98161.97;;;6.65;17.58
58973;BME280;44750;52.040;7.472;2023-03-14T10:27:21;98176.91;;;6.31;23.54
58973;BME280;44750;52.040;7.472;2023-03-14T10:32:28;98164.22;;;5.95;31.56
58973;BME280;44750;52.040;7.472;2023-03-14T10:37:28;98184.41;;;5.91;33.60
58973;BME280;44750;52.040;7.472;2023-03-14T10:42:30;98219.38;;;5.82;36.00
58973;BME280;44750;52.040;7.472;2023-03-14T10:47:31;98227.41;;;5.67;37.57
58973;BME280;44750;52.040;7.472;2023-03-14T10:52:32;98229.50;;;5.42;40.52
58973;BME280;44750;52.040;7.472;2023-03-14T10:57:38;98248.09;;;5.44;41.83
58973;BME280;44750;52.040;7.472;2023-03-14T11:08:07;98241.03;;;5.28;49.94
58973;BME280;44750;52.040;7.472;2023-03-14T11:34:43;98299.56;;;5.85;60.91
58973;BME280;44750;52.040;7.472;2023-03-14T11:39:56;98305.09;;;6.07;64.74
58973;BME280;44750;52.040;7.472;2023-03-14T11:45:00;98319.78;;;6.34;70.46
58973;BME280;44750;52.040;7.472;2023-03-14T11:50:12;98331.88;;;6.75;75.96
58973;BME280;44750;52.040;7.472;2023-03-14T12:00:21;98272.13;;;6.95;91.10
58973;BME280;44750;52.040;7.472;2023-03-14T12:10:52;98254.84;;;6.67;100.00
58973;BME280;44750;52.040;7.472;2023-03-14T12:15:55;98216.41;;;5.62;100.00
58973;BME280;44750;52.040;7.472;2023-03-14T12:20:58;98282.38;;;5.57;100.00
58973;BME280;44750;52.040;7.472;2023-03-14T12:36:51;98388.25;;;6.53;91.54
58973;BME280;44750;52.040;7.472;2023-03-14T12:52:22;98433.38;;;6.58;93.16
58973;BME280;44750;52.040;7.472;2023-03-14T13:03:02;98395.66;;;7.11;100.00
58973;BME280;44750;52.040;7.472;2023-03-14T13:08:13;98344.34;;;7.13;100.00
58973;BME280;44750;52.040;7.472;2023-03-14T13:13:34;98365.59;;;7.66;100.00
58973;BME280;44750;52.040;7.472;2023-03-14T13:18:44;98325.28;;;7.51;100.00
58973;BME280;44750;52.040;7.472;2023-03-14T13:23:59;98314.19;;;7.17;100.00
58973;BME280;44750;52.040;7.472;2023-03-14T13:29:22;98299.72;;;7.18;100.00
58973;BME280;44750;52.040;7.472;2023-03-14T13:34:28;98260.28;;;7.54;100.00
58973;BME280;44750;52.040;7.472;2023-03-14T13:39:29;98292.44;;;7.84;100.00
58973;BME280;44750;52.040;7.472;2023-03-14T13:44:33;98311.81;;;7.73;100.00
58973;BME280;44750;52.040;7.472;2023-03-14T13:49:36;98302.91;;;7.29;100.00
58973;BME280;44750;52.040;7.472;2023-03-14T13:54:38;98330.59;;;7.44;100.00
58973;BME280;44750;52.040;7.472;2023-03-14T13:59:38;98321.31;;;7.68;100.00
58973;BME280;44750;52.040;7.472;2023-03-14T14:04:38;98315.66;;;7.63;100.00
58973;BME280;44750;52.040;7.472;2023-03-14T14:09:40;98321.94;;;7.92;100.00
58973;BME280;44750;52.040;7.472;2023-03-14T14:14:57;98315.28;;;8.16;100.00
58973;BME280;44750;52.040;7.472;2023-03-14T14:20:02;98310.66;;;7.82;100.00
58973;BME280;44750;52.040;7.472;2023-03-14T14:25:04;98353.03;;;7.95;100.00
58973;BME280;44750;52.040;7.472;2023-03-14T14:30:24;98356.75;;;8.22;100.00
58973;BME280;44750;52.040;7.472;2023-03-14T14:35:35;98345.97;;;7.94;100.00
58973;BME280;44750;52.040;7.472;2023-03-14T14:40:43;98348.16;;;7.62;100.00
58973;BME280;44750;52.040;7.472;2023-03-14T14:45:45;98338.66;;;7.87;100.00
58973;BME280;44750;52.040;7.472;2023-03-14T14:55:51;98349.84;;;7.84;100.00
58973;BME280;44750;52.040;7.472;2023-03-14T15:01:08;98318.78;;;7.89;100.00
58973;BME280;44750;52.040;7.472;2023-03-14T15:06:13;98292.75;;;7.74;100.00
58973;BME280;44750;52.040;7.472;2023-03-14T15:11:20;98384.31;;;8.17;100.00
58973;BME280;44750;52.040;7.472;2023-03-14T15:16:23;98318.13;;;8.08;100.00
58973;BME280;44750;52.040;7.472;2023-03-14T15:21:27;98412.50;;;8.43;100.00
58973;BME280;44750;52.040;7.472;2023-03-14T15:26:28;98351.28;;;8.37;100.00
58973;BME280;44750;52.040;7.472;2023-03-14T15:31:29;98311.31;;;8.12;100.00
58973;BME280;44750;52.040;7.472;2023-03-14T15:36:31;98287.13;;;7.69;100.00
58973;BME280;44750;52.040;7.472;2023-03-14T15:41:32;98342.66;;;7.48;100.00
58973;BME280;44750;52.040;7.472;2023-03-14T15:46:32;98374.66;;;7.22;100.00
58973;BME280;44750;52.040;7.472;2023-03-14T15:51:32;98333.88;;;7.03;100.00
58973;BME280;44750;52.040;7.472;2023-03-14T15:56:33;98313.91;;;7.12;100.00
58973;BME280;44750;52.040;7.472;2023-03-14T16:01:33;98311.31;;;7.19;100.00
58973;BME280;44750;52.040;7.472;2023-03-14T16:06:33;98304.63;;;7.15;100.00
58973;BME280;44750;52.040;7.472;2023-03-14T16:11:33;98282.25;;;7.14;98.13
58973;BME280;44750;52.040;7.472;2023-03-14T16:16:34;98167.13;;;6.81;91.40
58973;BME280;44750;52.040;7.472;2023-03-14T16:21:34;98176.25;;;6.65;89.61
58973;BME280;44750;52.040;7.472;2023-03-14T16:26:34;98169.41;;;6.63;89.09
58973;BME280;44750;52.040;7.472;2023-03-14T16:31:34;98160.75;;;6.67;88.23
58973;BME280;44750;52.040;7.472;2023-03-14T16:36:35;98204.47;;;6.55;89.25
58973;BME280;44750;52.040;7.472;2023-03-14T16:41:35;98200.22;;;6.45;90.14
58973;BME280;44750;52.040;7.472;2023-03-14T16:46:35;98245.63;;;6.40;91.97
58973;BME280;44750;52.040;7.472;2023-03-14T16:51:35;98376.66;;;6.53;94.08
58973;BME280;44750;52.040;7.472;2023-03-14T16:56:36;98399.72;;;6.47;96.59
58973;BME280;44750;52.040;7.472;2023-03-14T17:01:36;98450.88;;;6.39;99.25
58973;BME280;44750;52.040;7.472;2023-03-14T17:06:37;98477.34;;;6.27;100.00
58973;BME280;44750;52.040;7.472;2023-03-14T17:11:38;98548.56;;;6.23;100.00
58973;BME280;44750;52.040;7.472;2023-03-14T17:16:38;98586.59;;;6.12;100.00
58973;BME280;44750;52.040;7.472;2023-03-14T17:21:39;98571.53;;;5.94;100.00
58973;BME280;44750;52.040;7.472;2023-03-14T17:26:39;98618.69;;;6.05;100.00
58973;BME280;44750;52.040;7.472;2023-03-14T17:31:39;98518.63;;;5.72;100.00
58973;BME280;44750;52.040;7.472;2023-03-14T17:36:40;98579.94;;;5.51;100.00
58973;BME280;44750;52.040;7.472;2023-03-14T17:41:40;98626.56;;;5.59;100.00
58973;BME280;44750;52.040;7.472;2023-03-14T17:46:40;98653.09;;;5.45;100.00
58973;BME280;44750;52.040;7.472;2023-03-14T17:51:40;98721.34;;;5.51;100.00
58973;BME280;44750;52.040;7.472;2023-03-14T17:56:41;98748.19;;;5.34;100.00
58973;BME280;44750;52.040;7.472;2023-03-14T18:01:41;98856.88;;;5.47;100.00
58973;BME280;44750;52.040;7.472;2023-03-14T18:06:41;98916.06;;;5.45;100.00
58973;BME280;44750;52.040;7.472;2023-03-14T18:11:41;98954.13;;;5.41;100.00
58973;BME280;44750;52.040;7.472;2023-03-14T18:16:42;98946.66;;;5.18;100.00
58973;BME280;44750;52.040;7.472;2023-03-14T18:21:42;98893.69;;;5.12;100.00
58973;BME280;44750;52.040;7.472;2023-03-14T18:26:42;98916.50;;;5.16;100.00
58973;BME280;44750;52.040;7.472;2023-03-14T18:31:43;98931.72;;;5.15;100.00
58973;BME280;44750;52.040;7.472;2023-03-14T18:36:43;98966.31;;;5.18;100.00
58973;BME280;44750;52.040;7.472;2023-03-14T18:41:44;98991.94;;;5.21;100.00
58973;BME280;44750;52.040;7.472;2023-03-14T18:46:44;98984.34;;;5.08;100.00
58973;BME280;44750;52.040;7.472;2023-03-14T18:51:44;99013.81;;;5.00;100.00
58973;BME280;44750;52.040;7.472;2023-03-14T18:56:44;99077.22;;;5.09;100.00
58973;BME280;44750;52.040;7.472;2023-03-14T19:01:45;99117.34;;;5.19;100.00
58973;BME280;44750;52.040;7.472;2023-03-14T19:06:45;99125.19;;;5.12;100.00
58973;BME280;44750;52.040;7.472;2023-03-14T19:11:45;99136.59;;;5.14;100.00
58973;BME280;44750;52.040;7.472;2023-03-14T19:16:46;99159.13;;;5.03;100.00
58973;BME280;44750;52.040;7.472;2023-03-14T19:21:46;99177.47;;;5.08;100.00
58973;BME280;44750;52.040;7.472;2023-03-14T19:26:46;99198.69;;;5.01;100.00
58973;BME280;44750;52.040;7.472;2023-03-14T19:31:46;99215.84;;;5.09;100.00
58973;BME280;44750;52.040;7.472;2023-03-14T19:36:47;99224.97;;;4.98;100.00
58973;BME280;44750;52.040;7.472;2023-03-14T19:41:47;99255.44;;;4.97;100.00
58973;BME280;44750;52.040;7.472;2023-03-14T19:46:47;99281.75;;;4.93;100.00
58973;BME280;44750;52.040;7.472;2023-03-14T19:51:48;99258.56;;;4.74;100.00
58973;BME280;44750;52.040;7.472;2023-03-14T19:56:49;99301.06;;;4.69;100.00
58973;BME280;44750;52.040;7.472;2023-03-14T20:01:49;99333.56;;;4.66;100.00
58973;BME280;44750;52.040;7.472;2023-03-14T20:06:50;99335.31;;;4.57;100.00
58973;BME280;44750;52.040;7.472;2023-03-14T20:11:50;99343.22;;;4.49;100.00
58973;BME280;44750;52.040;7.472;2023-03-14T20:16:50;99378.34;;;4.46;100.00
58973;BME280;44750;52.040;7.472;2023-03-14T20:21:51;99396.00;;;4.39;100.00
58973;BME280;44750;52.040;7.472;2023-03-14T20:26:51;99410.00;;;4.23;100.00
58973;BME280;44750;52.040;7.472;2023-03-14T20:31:51;99417.75;;;4.26;100.00
58973;BME280;44750;52.040;7.472;2023-03-14T20:36:51;99447.38;;;4.24;100.00
58973;BME280;44750;52.040;7.472;2023-03-14T20:41:52;99434.38;;;4.19;100.00
58973;BME280;44750;52.040;7.472;2023-03-14T20:46:52;99446.13;;;4.18;100.00
58973;BME280;44750;52.040;7.472;2023-03-14T20:51:55;99439.22;;;4.16;100.00
58973;BME280;44750;52.040;7.472;2023-03-14T20:56:55;99436.94;;;4.11;100.00
58973;BME280;44750;52.040;7.472;2023-03-14T21:01:55;99438.50;;;4.04;100.00
58973;BME280;44750;52.040;7.472;2023-03-14T21:06:56;99444.88;;;3.93;100.00
58973;BME280;44750;52.040;7.472;2023-03-14T21:11:56;99444.59;;;3.87;100.00
58973;BME280;44750;52.040;7.472;2023-03-14T21:16:56;99446.25;;;3.88;100.00
58973;BME280;44750;52.040;7.472;2023-03-14T21:21:57;99466.13;;;3.85;100.00
58973;BME280;44750;52.040;7.472;2023-03-14T21:26:58;99465.41;;;3.73;100.00
58973;BME280;44750;52.040;7.472;2023-03-14T21:31:59;99489.25;;;3.76;100.00
58973;BME280;44750;52.040;7.472;2023-03-14T21:36:59;99493.88;;;3.74;100.00
58973;BME280;44750;52.040;7.472;2023-03-14T21:41:59;99482.88;;;3.67;100.00
58973;BME280;44750;52.040;7.472;2023-03-14T21:47:00;99486.38;;;3.58;100.00
58973;BME280;44750;52.040;7.472;2023-03-14T21:52:00;99494.69;;;3.55;100.00
58973;BME280;44750;52.040;7.472;2023-03-14T21:57:05;99490.16;;;3.46;100.00
58973;BME280;44750;52.040;7.472;2023-03-14T22:02:10;99507.06;;;3.46;100.00
58973;BME280;44750;52.040;7.472;2023-03-14T22:07:13;99500.03;;;3.45;100.00
58973;BME280;44750;52.040;7.472;2023-03-14T22:12:13;99489.28;;;3.35;100.00
58973;BME280;44750;52.040;7.472;2023-03-14T22:17:14;99505.63;;;3.32;100.00
58973;BME280;44750;52.040;7.472;2023-03-14T22:22:14;99514.28;;;3.15;100.00
58973;BME280;44750;52.040;7.472;2023-03-14T22:27:15;99525.38;;;3.10;100.00
58973;BME280;44750;52.040;7.472;2023-03-14T22:32:15;99536.44;;;3.27;100.00
58973;BME280;44750;52.040;7.472;2023-03-14T22:37:15;99527.09;;;3.21;100.00
58973;BME280;44750;52.040;7.472;2023-03-14T22:42:16;99526.09;;;3.12;100.00
58973;BME280;44750;52.040;7.472;2023-03-14T22:47:16;99545.41;;;3.16;100.00
58973;BME280;44750;52.040;7.472;2023-03-14T22:52:16;99540.38;;;3.23;100.00
58973;BME280;44750;52.040;7.472;2023-03-14T22:57:17;99527.81;;;3.13;100.00
58973;BME280;44750;52.040;7.472;2023-03-14T23:02:18;99542.00;;;3.14;100.00
58973;BME280;44750;52.040;7.472;2023-03-14T23:07:18;99531.84;;;3.08;100.00
58973;BME280;44750;52.040;7.472;2023-03-14T23:12:18;99543.44;;;3.18;100.00
58973;BME280;44750;52.040;7.472;2023-03-14T23:17:19;99553.00;;;3.21;100.00
58973;BME280;44750;52.040;7.472;2023-03-14T23:22:19;99554.72;;;3.22;100.00
58973;BME280;44750;52.040;7.472;2023-03-14T23:27:19;99540.44;;;3.11;100.00
58973;BME280;44750;52.040;7.472;2023-03-14T23:32:20;99542.16;;;3.12;100.00
58973;BME280;44750;52.040;7.472;2023-03-14T23:37:20;99575.56;;;3.28;100.00
58973;BME280;44750;52.040;7.472;2023-03-14T23:42:20;99541.59;;;3.18;100.00
58973;BME280;44750;52.040;7.472;2023-03-14T23:47:20;99556.84;;;3.28;100.00
58973;BME280;44750;52.040;7.472;2023-03-14T23:52:21;99577.41;;;3.37;100.00
58973;BME280;44750;52.040;7.472;2023-03-14T23:57:21;99599.53;;;3.39;100.00
